»·PEaware :: BNF3 KSLC-KEGE

BNF3 :: KSLC-KEGE

FLIGHT INFORMATION

Flight Status: Arrived
Operator:
Braniff International
More flights by this operator :: More flights under this callsign
Pilot: Charles R. (23059)
Aircraft: BOEING 727-200
(B722)
More flights by this aircraft type
Origin: KSLC Salt Lake City Intl
United States
Destination: KEGE Eagle Co Regl
United States
More flights between these airports :: More routes between these airports
Route: SLC4 FFU V200 RLG
File this flight plan on PilotEdge
Remarks: PER / C OPR / BRANIFF
Altitude:
(Current/Filed)
37,000ft
Speed:
(Current/Filed)
450kts
Departed: 24-Feb-19 12:45 PM
Arrived: 24-Feb-19 01:34 PM
Distance/Time
Traveled:
242nm/0:49
Distance/Time
To Go:
Arrived

Flight Plot

Page will automatically refresh every two minutes.

Flight plan parsing failed; only flown route is shown


Map Options




Map Legend


Flown Route
Filed Route
Departure Airport
Arrival Airport
Navaid (VOR, NDB)
Fix

Horizontal Profiles

Position Reports

Time Latitude Longitude Heading Altitude Ground
Speed
24-Feb-19 12:05 40.789211 -111.981645 99 4239ft 0kts
24-Feb-19 12:06 40.789211 -111.981645 99 4239ft 0kts
24-Feb-19 12:07 40.789211 -111.981645 99 4239ft 0kts
24-Feb-19 12:08 40.789211 -111.981645 99 4239ft 0kts
24-Feb-19 12:09 40.789211 -111.981645 99 4239ft 0kts
24-Feb-19 12:10 40.789211 -111.981645 99 4239ft 0kts
24-Feb-19 12:11 40.789211 -111.981645 99 4239ft 0kts
24-Feb-19 12:12 40.789211 -111.981645 99 4239ft 0kts
24-Feb-19 12:13 40.789211 -111.981645 99 4239ft 0kts
24-Feb-19 12:15 40.789211 -111.981645 99 4239ft 0kts
24-Feb-19 12:16 40.789211 -111.981645 99 4239ft 0kts
24-Feb-19 12:17 40.789211 -111.981645 99 4239ft 0kts
24-Feb-19 12:18 40.789211 -111.981645 99 4239ft 0kts
24-Feb-19 12:19 40.789211 -111.981645 99 4239ft 0kts
24-Feb-19 12:20 40.789211 -111.981645 99 4239ft 0kts
24-Feb-19 12:21 40.789211 -111.981645 99 4239ft 0kts
24-Feb-19 12:22 40.789211 -111.981645 99 4239ft 0kts
24-Feb-19 12:23 40.789211 -111.981645 99 4239ft 0kts
24-Feb-19 12:24 40.789211 -111.981645 99 4239ft 0kts
24-Feb-19 12:25 40.789211 -111.981645 99 4239ft 0kts
24-Feb-19 12:26 40.789211 -111.981645 99 4239ft 0kts
24-Feb-19 12:27 40.789272 -111.982140 99 4239ft 1kts
24-Feb-19 12:28 40.789055 -111.982499 4 4239ft 0kts
24-Feb-19 12:29 40.789055 -111.982499 4 4239ft 0kts
24-Feb-19 12:30 40.789056 -111.982499 4 4239ft 0kts
24-Feb-19 12:31 40.789056 -111.982499 4 4239ft 0kts
24-Feb-19 12:32 40.789056 -111.982499 4 4239ft 0kts
24-Feb-19 12:32 40.789056 -111.982499 4 4239ft 0kts
24-Feb-19 12:34 40.789056 -111.982499 4 4239ft 0kts
24-Feb-19 12:35 40.789056 -111.982499 4 4239ft 0kts
24-Feb-19 12:35 40.789056 -111.982499 4 4239ft 0kts
24-Feb-19 12:36 40.789057 -111.982499 4 4239ft 0kts
24-Feb-19 12:38 40.791561 -111.981406 22 4239ft 9kts
24-Feb-19 12:38 40.792152 -111.977574 56 4239ft 11kts
24-Feb-19 12:39 40.796208 -111.977807 354 4239ft 19kts
24-Feb-19 12:40 40.802002 -111.978480 354 4239ft 21kts
24-Feb-19 12:41 40.807256 -111.978740 46 4239ft 0kts
24-Feb-19 12:42 40.807256 -111.978740 47 4239ft 0kts
24-Feb-19 12:43 40.807065 -111.976896 172 4239ft 0kts
24-Feb-19 12:44 40.799608 -111.976027 175 4239ft 120kts
24-Feb-19 12:45 40.754988 -111.966382 170 6373ft 187kts
24-Feb-19 12:46 40.695732 -111.949714 171 9281ft 238kts
24-Feb-19 12:47 40.624022 -111.929970 171 12451ft 277kts
24-Feb-19 12:48 40.544985 -111.903870 155 15643ft 306kts
24-Feb-19 12:49 40.499833 -111.794349 111 17403ft 377kts
24-Feb-19 12:50 40.466188 -111.655609 111 19947ft 400kts
24-Feb-19 12:51 40.430079 -111.510418 110 21962ft 428kts
24-Feb-19 12:52 40.392384 -111.356494 110 24035ft 445kts
24-Feb-19 12:53 40.353232 -111.197289 111 25818ft 462kts
24-Feb-19 12:54 40.312586 -111.033314 110 27450ft 475kts
24-Feb-19 12:55 40.270896 -110.864024 110 28974ft 487kts
24-Feb-19 12:56 40.228245 -110.690473 110 30285ft 501kts
24-Feb-19 12:57 40.184216 -110.512627 110 31532ft 511kts
24-Feb-19 12:58 40.165444 -110.324601 97 32940ft 515kts
24-Feb-19 12:59 40.149671 -110.137237 97 34189ft 516kts
24-Feb-19 13:00 40.144599 -109.948093 92 35321ft 514kts
24-Feb-19 13:01 40.139222 -109.759382 92 36386ft 513kts
24-Feb-19 13:02 40.133437 -109.570607 92 37284ft 512kts
24-Feb-19 13:03 40.127363 -109.378505 92 37325ft 532kts
24-Feb-19 13:04 40.120345 -109.180989 92 37312ft 549kts
24-Feb-19 13:05 40.113456 -108.976678 92 37309ft 566kts
24-Feb-19 13:06 40.105119 -108.767118 94 37304ft 579kts
24-Feb-19 13:07 40.096524 -108.555225 94 36108ft 581kts
24-Feb-19 13:08 40.087682 -108.345358 95 33575ft 571kts
24-Feb-19 13:09 40.076740 -108.144445 98 32431ft 536kts
24-Feb-19 13:10 40.071437 -107.952024 96 30560ft 519kts
24-Feb-19 13:11 40.062302 -107.763713 97 28871ft 501kts
24-Feb-19 13:12 40.053742 -107.582578 95 27243ft 486kts
24-Feb-19 13:13 40.046050 -107.407253 96 25646ft 471kts
24-Feb-19 13:14 40.038536 -107.237158 100 24050ft 454kts
24-Feb-19 13:15 40.022783 -107.073597 102 22581ft 439kts
24-Feb-19 13:16 40.014730 -106.915281 93 21228ft 431kts
24-Feb-19 13:17 40.010907 -106.759355 92 19827ft 419kts
24-Feb-19 13:18 40.007202 -106.608445 93 18431ft 406kts
24-Feb-19 13:19 39.996476 -106.463414 120 17006ft 374kts
24-Feb-19 13:20 39.920386 -106.426228 213 15315ft 296kts
24-Feb-19 13:21 39.852521 -106.484916 216 14405ft 278kts
24-Feb-19 13:22 39.798455 -106.521025 196 13926ft 172kts
24-Feb-19 13:23 39.756740 -106.533015 200 13864ft 148kts
24-Feb-19 13:24 39.714870 -106.546242 200 13462ft 156kts
24-Feb-19 13:25 39.691076 -106.581809 261 12793ft 142kts
24-Feb-19 13:26 39.684237 -106.632584 259 11921ft 138kts
24-Feb-19 13:27 39.676713 -106.682678 259 11013ft 142kts
24-Feb-19 13:28 39.669024 -106.733479 260 9932ft 141kts
24-Feb-19 13:29 39.661176 -106.783543 261 8902ft 138kts
24-Feb-19 13:30 39.651760 -106.832275 263 7918ft 140kts
24-Feb-19 13:31 39.646531 -106.881800 263 6902ft 136kts
24-Feb-19 13:32 39.642243 -106.920761 261 6558ft 41kts
24-Feb-19 13:33 39.641026 -106.921491 82 6558ft 3kts
24-Feb-19 13:34 39.641218 -106.919755 81 6558ft 11kts
24-Feb-19 13:35 39.641380 -106.915674 149 6558ft 7kts

Navigation Log

Ident Type
Flight plan parsing failed, navigation log unavailable